Time;durP1;ratioP1;P1;durP2;ratioP2;P2;SDS_P1;SDS_P2;PMS_P1;PMS_P2;Temp;Humidity;BMP_temperature;BMP_pressure;BME280_temperature;BME280_humidity;BME280_pressure;Samples;Min_cycle;Max_cycle;Signal;HPM_P1;HPM_P2
2022/07/19 00:02:05;;;;;;;6.18;3.70;;;20.10;99.90;;;;;;5043998;28;20045;-75
2022/07/19 00:04:31;;;;;;;8.68;3.28;;;20.10;99.90;;;;;;5054678;28;20044;-76
2022/07/19 00:06:57;;;;;;;9.32;3.90;;;20.10;99.90;;;;;;5054018;28;20029;-75
2022/07/19 00:09:23;;;;;;;7.70;3.92;;;20.10;99.90;;;;;;5066490;28;20036;-75
2022/07/19 00:11:49;;;;;;;7.65;3.75;;;20.10;99.90;;;;;;5055219;28;20033;-75
2022/07/19 00:14:20;;;;;;;6.63;3.88;;;20.10;99.90;;;;;;5051310;28;20048;-75
2022/07/19 00:16:46;;;;;;;4.75;3.80;;;20.10;99.90;;;;;;5059501;28;20122;-75
2022/07/19 00:19:12;;;;;;;5.10;3.60;;;20.00;99.90;;;;;;5054711;28;20435;-75
2022/07/19 00:21:38;;;;;;;8.82;4.25;;;20.00;99.90;;;;;;5042707;28;20037;-76
2022/07/19 00:24:04;;;;;;;6.18;3.90;;;20.00;99.90;;;;;;5052177;28;20124;-76
2022/07/19 00:26:30;;;;;;;6.82;3.90;;;19.90;99.90;;;;;;5048824;28;20032;-75
2022/07/19 00:28:57;;;;;;;6.70;3.95;;;19.90;99.90;;;;;;5049541;28;20098;-75
2022/07/19 00:31:24;;;;;;;5.88;3.83;;;19.90;99.90;;;;;;5049274;28;20091;-75
2022/07/19 00:33:50;;;;;;;7.13;4.00;;;19.90;99.90;;;;;;5045635;28;20051;-75
2022/07/19 00:36:16;;;;;;;6.55;4.60;;;19.90;99.90;;;;;;5058654;28;20055;-76
2022/07/19 00:38:41;;;;;;;5.70;4.03;;;19.90;99.90;;;;;;5048077;28;20127;-76
2022/07/19 00:41:07;;;;;;;7.05;4.22;;;20.00;99.90;;;;;;5054254;28;20089;-75
2022/07/19 00:43:33;;;;;;;5.68;3.90;;;19.90;99.90;;;;;;5053506;28;20527;-75
2022/07/19 00:45:59;;;;;;;7.63;4.35;;;19.90;99.90;;;;;;5045258;28;20393;-75
2022/07/19 00:48:25;;;;;;;8.02;4.55;;;19.90;99.90;;;;;;5042538;28;20033;-75
2022/07/19 00:50:50;;;;;;;6.78;4.28;;;19.90;99.90;;;;;;5048697;28;20395;-75
2022/07/19 00:53:19;;;;;;;8.85;4.68;;;19.80;99.90;;;;;;5040328;28;20139;-75
2022/07/19 00:55:45;;;;;;;6.65;4.38;;;19.80;99.90;;;;;;5052172;28;20097;-75
2022/07/19 00:58:13;;;;;;;7.07;4.32;;;19.70;99.90;;;;;;5062614;28;20037;-75
2022/07/19 01:00:40;;;;;;;9.43;4.70;;;19.70;99.90;;;;;;5047736;28;20503;-75
2022/07/19 01:03:09;;;;;;;7.72;4.35;;;19.70;99.90;;;;;;5052294;28;20047;-75
2022/07/19 01:05:35;;;;;;;8.13;4.20;;;19.70;99.90;;;;;;5042974;28;20480;-75
2022/07/19 01:08:00;;;;;;;8.75;4.45;;;19.70;99.90;;;;;;5053458;28;20044;-75
2022/07/19 01:10:27;;;;;;;9.27;4.90;;;19.70;99.90;;;;;;5046495;28;20033;-75
2022/07/19 01:12:53;;;;;;;6.60;4.57;;;19.70;99.90;;;;;;5054466;28;20480;-75
2022/07/19 01:15:28;;;;;;;8.38;4.95;;;19.70;99.90;;;;;;5034569;28;20122;-75
2022/07/19 01:17:54;;;;;;;8.70;4.82;;;19.70;99.90;;;;;;5046314;28;20053;-75
2022/07/19 01:20:23;;;;;;;8.93;4.57;;;19.70;99.90;;;;;;5048480;28;20127;-75
2022/07/19 01:22:49;;;;;;;9.05;5.22;;;19.70;99.90;;;;;;5060999;28;20045;-75
2022/07/19 01:25:15;;;;;;;7.82;5.05;;;19.70;99.90;;;;;;5048941;28;20484;-75
2022/07/19 01:27:43;;;;;;;7.60;5.03;;;19.70;99.90;;;;;;5041846;28;20052;-75
2022/07/19 01:30:17;;;;;;;6.60;4.68;;;19.70;99.90;;;;;;5039603;28;20126;-75
2022/07/19 01:32:45;;;;;;;12.05;5.05;;;19.70;99.90;;;;;;5035474;28;20041;-75
2022/07/19 01:35:10;;;;;;;8.07;4.78;;;19.70;99.90;;;;;;5035860;28;20178;-75
2022/07/19 01:37:38;;;;;;;7.60;5.28;;;19.70;99.90;;;;;;5066043;28;20123;-75
2022/07/19 01:40:06;;;;;;;7.43;4.75;;;19.70;99.90;;;;;;5041277;28;20040;-75
2022/07/19 01:42:34;;;;;;;7.47;4.85;;;19.70;99.90;;;;;;5043836;28;20045;-75
2022/07/19 01:45:00;;;;;;;8.43;5.18;;;19.70;99.90;;;;;;5032990;28;20033;-75
2022/07/19 01:47:26;;;;;;;6.50;4.80;;;19.70;99.90;;;;;;5047476;28;20044;-75
2022/07/19 01:49:53;;;;;;;7.97;4.88;;;19.70;99.90;;;;;;5024554;28;20429;-75
2022/07/19 01:52:19;;;;;;;7.82;5.03;;;19.60;99.90;;;;;;5040523;28;20080;-75
2022/07/19 01:54:44;;;;;;;9.93;5.53;;;19.60;99.90;;;;;;5048376;28;20453;-75
2022/07/19 01:57:10;;;;;;;6.53;4.95;;;19.60;99.90;;;;;;5049216;28;20079;-75
2022/07/19 01:59:36;;;;;;;7.63;4.90;;;19.50;99.90;;;;;;5051316;28;20044;-76
2022/07/19 02:02:03;;;;;;;9.15;5.40;;;19.50;99.90;;;;;;5046111;28;20033;-76
2022/07/19 02:04:29;;;;;;;7.22;4.65;;;19.50;99.90;;;;;;5022912;28;20086;-76
2022/07/19 02:06:54;;;;;;;9.07;4.97;;;19.50;99.90;;;;;;5044363;28;20390;-76
2022/07/19 02:09:20;;;;;;;7.55;4.97;;;19.40;99.90;;;;;;5040855;28;20040;-76
2022/07/19 02:11:46;;;;;;;7.75;4.70;;;19.40;99.90;;;;;;5060045;28;20048;-76
2022/07/19 02:14:12;;;;;;;9.85;4.18;;;19.40;99.90;;;;;;5070237;28;20056;-76
2022/07/19 02:16:39;;;;;;;7.78;4.68;;;19.40;99.90;;;;;;5040171;28;20032;-77
2022/07/19 02:19:06;;;;;;;7.03;5.13;;;19.40;99.90;;;;;;5042004;28;20488;-76
2022/07/19 02:21:32;;;;;;;10.13;4.32;;;19.30;99.90;;;;;;5048893;28;20489;-76
2022/07/19 02:23:58;;;;;;;9.95;4.93;;;19.30;99.90;;;;;;5071180;28;20029;-76
2022/07/19 02:26:24;;;;;;;8.10;5.15;;;19.30;99.90;;;;;;5046536;28;20061;-76
2022/07/19 02:28:49;;;;;;;7.70;5.03;;;19.30;99.90;;;;;;5069296;28;20480;-76
2022/07/19 02:31:15;;;;;;;8.35;4.80;;;19.30;99.90;;;;;;5049502;28;20044;-77
2022/07/19 02:33:41;;;;;;;8.38;4.80;;;19.30;99.90;;;;;;5070876;28;20511;-77
2022/07/19 02:36:07;;;;;;;11.32;4.65;;;19.30;99.90;;;;;;5060180;28;20049;-77
2022/07/19 02:38:33;;;;;;;7.70;4.38;;;19.20;99.90;;;;;;5060143;28;20044;-76
2022/07/19 02:40:59;;;;;;;6.13;4.15;;;19.20;99.90;;;;;;5053243;28;20090;-77
2022/07/19 02:43:24;;;;;;;6.93;4.47;;;19.10;99.90;;;;;;5048338;28;20497;-77
2022/07/19 02:45:50;;;;;;;10.15;4.82;;;19.10;99.90;;;;;;5046462;28;20111;-76
2022/07/19 02:48:16;;;;;;;9.52;4.93;;;19.00;99.90;;;;;;5028703;28;20407;-76
2022/07/19 02:50:42;;;;;;;8.77;5.03;;;19.00;99.90;;;;;;5042467;28;20425;-77
2022/07/19 02:53:07;;;;;;;7.55;4.93;;;19.00;99.90;;;;;;5044297;28;20091;-76
2022/07/19 02:55:33;;;;;;;7.45;4.90;;;19.00;99.90;;;;;;5042362;28;20119;-76
2022/07/19 02:57:59;;;;;;;7.60;4.57;;;19.00;99.90;;;;;;5032867;28;20462;-76
2022/07/19 03:00:25;;;;;;;9.40;4.70;;;19.00;99.90;;;;;;5041549;28;20047;-76
2022/07/19 03:02:51;;;;;;;7.82;4.68;;;19.00;99.90;;;;;;5055389;28;20033;-76
2022/07/19 03:05:16;;;;;;;9.32;4.50;;;18.90;99.90;;;;;;5043778;28;20028;-76
2022/07/19 03:07:42;;;;;;;7.53;5.00;;;18.90;99.90;;;;;;5037310;28;20029;-76
2022/07/19 03:10:08;;;;;;;8.10;4.18;;;18.90;99.90;;;;;;5041340;28;20040;-76
2022/07/19 03:12:34;;;;;;;7.13;4.47;;;18.80;99.90;;;;;;5068507;28;20438;-77
2022/07/19 03:15:00;;;;;;;6.88;4.43;;;18.80;99.90;;;;;;5048538;28;20137;-77
2022/07/19 03:17:25;;;;;;;10.02;4.68;;;18.80;99.90;;;;;;5057694;28;20052;-76
2022/07/19 03:19:51;;;;;;;7.22;3.97;;;18.80;99.90;;;;;;5047415;28;20041;-76
2022/07/19 03:22:17;;;;;;;7.50;4.70;;;18.80;99.90;;;;;;5046805;28;20154;-76
2022/07/19 03:24:42;;;;;;;7.20;4.22;;;18.70;99.90;;;;;;5036307;28;20036;-77
2022/07/19 03:27:08;;;;;;;9.40;4.80;;;18.70;99.90;;;;;;5046310;28;20477;-76
2022/07/19 03:29:34;;;;;;;7.13;4.70;;;18.70;99.90;;;;;;5039394;28;20025;-76
2022/07/19 03:32:00;;;;;;;7.47;4.53;;;18.70;99.90;;;;;;5056788;28;20564;-77
2022/07/19 03:34:28;;;;;;;9.30;4.90;;;18.70;99.90;;;;;;5050459;28;20074;-76
2022/07/19 03:36:54;;;;;;;8.05;5.28;;;18.60;99.90;;;;;;5047013;28;20421;-76
2022/07/19 03:39:20;;;;;;;7.70;5.45;;;18.60;99.90;;;;;;5052530;28;20131;-76
2022/07/19 03:41:46;;;;;;;8.10;4.90;;;18.50;99.90;;;;;;5030148;28;20056;-77
2022/07/19 03:44:12;;;;;;;8.05;4.28;;;18.50;99.90;;;;;;5048053;28;20514;-76
2022/07/19 03:46:38;;;;;;;6.32;4.65;;;18.50;99.90;;;;;;5068905;28;20358;-76
2022/07/19 03:49:04;;;;;;;7.13;4.60;;;18.50;99.90;;;;;;5043218;28;20033;-76
2022/07/19 03:51:29;;;;;;;8.82;5.20;;;18.50;99.90;;;;;;5046597;28;20123;-76
2022/07/19 03:53:55;;;;;;;9.23;5.35;;;18.50;99.90;;;;;;5064658;28;20052;-76
2022/07/19 03:56:20;;;;;;;8.93;5.07;;;18.40;99.90;;;;;;5065014;28;20491;-75
2022/07/19 03:58:48;;;;;;;8.90;5.88;;;18.50;99.90;;;;;;5049836;28;20090;-76
2022/07/19 04:01:14;;;;;;;9.18;5.28;;;18.50;99.90;;;;;;5052428;28;20079;-76
2022/07/19 04:03:46;;;;;;;9.20;5.85;;;18.50;99.90;;;;;;5047880;28;20041;-76
2022/07/19 04:06:12;;;;;;;10.38;5.35;;;18.40;99.90;;;;;;5052741;28;20454;-76
2022/07/19 04:08:39;;;;;;;10.27;5.93;;;18.50;99.90;;;;;;5028932;28;20075;-76
2022/07/19 04:11:05;;;;;;;10.02;5.57;;;18.50;99.90;;;;;;5047622;28;20127;-77
2022/07/19 04:13:33;;;;;;;9.07;5.80;;;18.50;99.90;;;;;;5045377;28;20448;-79
2022/07/19 04:15:59;;;;;;;9.75;5.78;;;18.50;99.90;;;;;;5027013;28;20041;-78
2022/07/19 04:18:24;;;;;;;7.97;5.60;;;18.50;99.90;;;;;;5024392;28;20041;-78
2022/07/19 04:20:50;;;;;;;7.75;5.30;;;18.50;99.90;;;;;;5028543;28;20041;-77
2022/07/19 04:23:17;;;;;;;10.10;5.78;;;18.40;99.90;;;;;;5053389;28;20382;-77
2022/07/19 04:25:42;;;;;;;7.82;5.38;;;18.40;99.90;;;;;;5037627;28;20037;-77
2022/07/19 04:28:08;;;;;;;7.82;5.80;;;18.40;99.90;;;;;;5053506;28;20039;-77
2022/07/19 04:30:34;;;;;;;9.30;5.70;;;18.40;99.90;;;;;;5046637;28;20120;-79
2022/07/19 04:32:59;;;;;;;10.68;5.38;;;18.40;99.90;;;;;;5055480;28;20440;-78
2022/07/19 04:35:25;;;;;;;7.95;5.65;;;18.40;99.90;;;;;;5054547;28;20500;-78
2022/07/19 04:37:51;;;;;;;9.70;5.60;;;18.40;99.90;;;;;;5036908;28;20044;-78
2022/07/19 04:40:16;;;;;;;8.35;5.40;;;18.50;99.90;;;;;;5047467;28;20729;-78
2022/07/19 04:42:42;;;;;;;10.32;6.03;;;18.50;99.90;;;;;;5067246;28;20033;-80
2022/07/19 04:45:08;;;;;;;9.75;6.45;;;18.50;99.90;;;;;;5033903;28;20044;-78
2022/07/19 04:47:34;;;;;;;8.00;5.68;;;18.50;99.90;;;;;;5036423;28;20554;-78
2022/07/19 04:50:01;;;;;;;7.93;5.82;;;18.50;99.90;;;;;;5030541;28;20047;-78
2022/07/19 04:52:27;;;;;;;11.15;6.15;;;18.50;99.90;;;;;;5049060;28;20076;-79
2022/07/19 04:54:52;;;;;;;10.93;6.00;;;18.50;99.90;;;;;;5033702;28;20079;-76
2022/07/19 04:57:18;;;;;;;8.55;6.03;;;18.50;99.90;;;;;;5069497;28;20052;-76
2022/07/19 04:59:44;;;;;;;9.25;5.50;;;18.50;99.90;;;;;;5052799;28;20441;-76
2022/07/19 05:02:09;;;;;;;11.55;5.90;;;18.50;99.90;;;;;;5040892;28;20099;-76
2022/07/19 05:04:35;;;;;;;8.52;5.55;;;18.60;99.90;;;;;;5052397;28;20041;-75
2022/07/19 05:07:00;;;;;;;10.00;5.93;;;18.50;99.90;;;;;;5070756;28;20032;-75
2022/07/19 05:09:28;;;;;;;8.52;5.93;;;18.60;99.90;;;;;;5054464;28;20549;-75
2022/07/19 05:11:55;;;;;;;8.02;5.75;;;18.50;99.90;;;;;;5062458;28;20083;-75
2022/07/19 05:14:21;;;;;;;11.05;6.18;;;18.60;99.90;;;;;;5058571;28;20112;-75
2022/07/19 05:16:49;;;;;;;8.48;5.85;;;18.60;99.90;;;;;;5048093;28;20119;-75
2022/07/19 05:19:15;;;;;;;9.05;5.95;;;18.60;99.90;;;;;;5057354;28;20048;-75
2022/07/19 05:21:41;;;;;;;9.93;6.20;;;18.60;99.90;;;;;;5072417;28;20154;-75
2022/07/19 05:24:07;;;;;;;9.85;6.15;;;18.60;99.90;;;;;;5065483;28;20107;-75
2022/07/19 05:26:33;;;;;;;9.93;6.05;;;18.70;99.90;;;;;;5029511;28;20076;-75
2022/07/19 05:29:00;;;;;;;11.00;6.38;;;18.70;99.90;;;;;;5050600;28;20110;-75
2022/07/19 05:31:27;;;;;;;12.82;6.97;;;18.70;99.90;;;;;;5037094;28;20036;-75
2022/07/19 05:33:53;;;;;;;12.98;6.43;;;18.70;99.90;;;;;;5058554;28;20044;-75
2022/07/19 05:36:20;;;;;;;12.57;6.35;;;18.70;99.90;;;;;;5035150;28;20094;-75
2022/07/19 05:38:46;;;;;;;10.25;6.72;;;18.80;99.90;;;;;;5031483;28;20440;-75
2022/07/19 05:41:12;;;;;;;11.38;6.25;;;18.80;99.90;;;;;;5051087;28;20049;-75
2022/07/19 05:43:39;;;;;;;12.27;6.85;;;18.90;99.90;;;;;;5052401;28;20029;-75
2022/07/19 05:46:05;;;;;;;9.93;6.85;;;18.90;99.90;;;;;;5052554;28;20129;-75
2022/07/19 05:48:31;;;;;;;9.45;6.53;;;18.90;99.90;;;;;;5062540;28;20064;-74
2022/07/19 05:50:58;;;;;;;13.23;7.32;;;19.00;99.90;;;;;;5051712;28;20382;-74
2022/07/19 05:53:24;;;;;;;10.45;6.53;;;19.00;99.90;;;;;;5070958;28;20036;-74
2022/07/19 05:55:50;;;;;;;10.77;6.10;;;19.00;99.90;;;;;;5054947;28;20127;-74
2022/07/19 05:58:19;;;;;;;9.50;5.50;;;19.00;99.90;;;;;;5048211;28;20140;-75
2022/07/19 06:03:31;;;;;;;11.90;6.35;;;19.10;99.90;;;;;;5052743;28;20075;-75
2022/07/19 06:05:57;;;;;;;11.63;6.25;;;19.10;99.90;;;;;;5054086;28;20033;-77
2022/07/19 06:08:23;;;;;;;11.15;6.22;;;19.20;99.90;;;;;;5023189;28;20094;-77
2022/07/19 06:10:49;;;;;;;11.48;6.10;;;19.30;99.90;;;;;;5053420;28;20059;-76
2022/07/19 06:13:15;;;;;;;10.50;6.13;;;19.30;99.90;;;;;;5036492;28;20033;-77
2022/07/19 06:15:40;;;;;;;11.18;5.75;;;19.30;99.90;;;;;;5071221;28;20151;-77
2022/07/19 06:18:06;;;;;;;11.20;6.75;;;19.40;99.90;;;;;;5045460;28;20064;-77
2022/07/19 06:20:32;;;;;;;10.60;6.60;;;19.40;99.90;;;;;;5048781;28;20041;-77
2022/07/19 06:22:57;;;;;;;9.63;6.60;;;19.50;99.90;;;;;;5043975;28;20055;-78
2022/07/19 06:25:23;;;;;;;9.55;5.90;;;19.60;99.90;;;;;;5032844;28;20037;-77
2022/07/19 06:27:50;;;;;;;8.45;6.68;;;19.60;99.90;;;;;;5067039;28;20032;-77
2022/07/19 06:30:19;;;;;;;11.48;6.75;;;19.60;99.90;;;;;;5028322;28;20101;-80
2022/07/19 06:32:45;;;;;;;10.27;6.38;;;19.80;99.90;;;;;;5031750;28;20137;-78
2022/07/19 06:35:10;;;;;;;9.93;6.40;;;19.80;99.90;;;;;;5036736;28;20520;-78
2022/07/19 06:37:36;;;;;;;10.77;6.40;;;19.90;99.90;;;;;;5038249;28;20056;-79
2022/07/19 06:40:02;;;;;;;12.93;6.45;;;19.90;99.90;;;;;;5070848;28;20049;-79
2022/07/19 06:42:28;;;;;;;12.07;6.45;;;19.90;99.90;;;;;;5038433;28;20041;-79
2022/07/19 06:44:54;;;;;;;11.93;6.05;;;20.00;99.90;;;;;;5036683;28;20548;-79
2022/07/19 06:47:19;;;;;;;9.82;6.10;;;20.10;99.90;;;;;;5052993;28;20058;-79
2022/07/19 06:49:45;;;;;;;10.93;6.45;;;20.20;99.90;;;;;;5053499;28;20041;-78
2022/07/19 06:52:11;;;;;;;9.77;5.85;;;20.20;99.90;;;;;;5038768;28;20036;-78
2022/07/19 06:54:36;;;;;;;8.00;5.93;;;20.30;99.90;;;;;;5038677;28;20127;-79
2022/07/19 06:57:03;;;;;;;11.32;6.50;;;20.40;99.90;;;;;;5052970;28;20427;-79
2022/07/19 06:59:28;;;;;;;9.32;6.30;;;20.50;99.90;;;;;;5057689;28;20032;-79
2022/07/19 07:01:54;;;;;;;8.00;5.90;;;20.60;99.90;;;;;;5042527;28;20105;-79
2022/07/19 07:04:20;;;;;;;10.18;6.03;;;20.70;99.90;;;;;;5042742;28;20065;-80
2022/07/19 07:06:45;;;;;;;9.00;6.20;;;20.80;99.90;;;;;;5059763;28;20044;-79
2022/07/19 07:09:11;;;;;;;11.88;6.18;;;20.80;99.90;;;;;;5058169;28;20075;-79
2022/07/19 07:11:37;;;;;;;11.13;5.85;;;20.90;99.90;;;;;;5077302;28;20078;-79
2022/07/19 07:14:02;;;;;;;10.07;5.75;;;21.00;99.90;;;;;;5052014;28;20084;-79
2022/07/19 07:16:28;;;;;;;8.88;5.95;;;21.10;99.90;;;;;;5023875;28;20041;-79
2022/07/19 07:19:00;;;;;;;11.32;6.05;;;21.20;99.90;;;;;;5071144;28;20407;-79
2022/07/19 07:21:25;;;;;;;11.57;6.05;;;21.30;99.90;;;;;;5044301;28;20051;-80
2022/07/19 07:23:51;;;;;;;8.65;5.13;;;21.40;99.90;;;;;;5053434;28;20045;-79
2022/07/19 07:26:17;;;;;;;8.43;4.93;;;21.50;99.90;;;;;;5059155;28;20036;-79
2022/07/19 07:28:43;;;;;;;6.47;4.68;;;21.60;99.90;;;;;;5072181;28;20048;-79
2022/07/19 07:31:08;;;;;;;9.75;5.05;;;21.70;99.90;;;;;;5041897;28;20051;-79
2022/07/19 07:33:36;;;;;;;8.50;4.88;;;21.80;99.90;;;;;;5032487;28;20087;-79
2022/07/19 07:36:04;;;;;;;8.38;4.85;;;21.90;99.90;;;;;;5043103;28;20036;-78
2022/07/19 07:38:30;;;;;;;6.80;4.45;;;22.10;99.90;;;;;;5036358;28;20041;-78
2022/07/19 07:40:56;;;;;;;9.88;4.93;;;22.20;99.90;;;;;;5032068;28;20131;-79
2022/07/19 07:43:21;;;;;;;11.50;4.82;;;22.30;99.90;;;;;;5065640;28;20029;-82
2022/07/19 07:45:47;;;;;;;8.32;4.70;;;22.40;99.90;;;;;;5050790;28;20045;-78
2022/07/19 07:48:13;;;;;;;9.60;4.45;;;22.50;99.90;;;;;;5043211;28;20559;-79
2022/07/19 07:50:38;;;;;;;12.43;4.80;;;22.50;99.90;;;;;;5041879;28;20458;-79
2022/07/19 07:53:04;;;;;;;10.20;4.45;;;22.70;99.90;;;;;;5053450;28;20032;-79
2022/07/19 07:55:30;;;;;;;10.55;4.60;;;22.70;99.90;;;;;;5042904;28;20029;-79
2022/07/19 07:57:55;;;;;;;9.38;4.30;;;22.80;99.90;;;;;;5062250;28;20119;-79
2022/07/19 08:00:21;;;;;;;10.77;4.35;;;22.90;99.90;;;;;;5056547;28;20202;-79
2022/07/19 08:02:49;;;;;;;6.25;4.00;;;23.00;99.90;;;;;;5055122;28;20056;-79
2022/07/19 08:05:15;;;;;;;9.30;4.35;;;23.10;99.90;;;;;;5055717;28;20049;-79
2022/07/19 08:07:41;;;;;;;8.73;4.07;;;23.30;99.90;;;;;;5036241;28;20039;-80
2022/07/19 08:10:09;;;;;;;7.95;3.42;;;23.40;99.90;;;;;;5064160;28;20493;-79
2022/07/19 08:12:34;;;;;;;11.57;3.92;;;23.50;99.90;;;;;;5057647;28;20087;-79
2022/07/19 08:15:00;;;;;;;6.80;3.55;;;23.60;99.90;;;;;;5038332;28;20393;-80
2022/07/19 08:17:26;;;;;;;5.88;3.45;;;23.70;99.90;;;;;;5056801;28;20037;-79
2022/07/19 08:19:51;;;;;;;7.70;3.42;;;23.80;99.90;;;;;;5054496;28;20044;-79
2022/07/19 08:22:21;;;;;;;10.32;3.15;;;24.00;99.90;;;;;;5067111;28;20470;-79
2022/07/19 08:24:46;;;;;;;7.55;3.38;;;24.10;99.90;;;;;;5044302;28;20064;-80
2022/07/19 08:27:12;;;;;;;7.85;3.20;;;24.30;99.90;;;;;;5071630;28;20547;-79
2022/07/19 08:29:38;;;;;;;6.95;3.40;;;24.60;99.90;;;;;;5047808;28;20041;-79
2022/07/19 08:32:04;;;;;;;6.05;3.10;;;24.80;99.90;;;;;;5073158;28;20112;-79
2022/07/19 08:34:30;;;;;;;5.63;3.53;;;25.10;99.90;;;;;;5055294;28;20068;-80
2022/07/19 08:36:56;;;;;;;10.43;3.50;;;25.30;99.90;;;;;;5055015;28;20534;-79
2022/07/19 08:39:22;;;;;;;6.38;3.45;;;25.60;99.90;;;;;;5035171;28;20039;-79
2022/07/19 08:41:48;;;;;;;8.73;3.42;;;25.90;99.90;;;;;;5071303;28;20037;-80
2022/07/19 08:44:16;;;;;;;6.88;3.30;;;26.30;99.90;;;;;;5061656;28;20037;-80
2022/07/19 08:46:42;;;;;;;7.13;3.30;;;26.50;99.80;;;;;;5069310;28;20439;-80
2022/07/19 08:49:11;;;;;;;6.03;3.25;;;26.90;99.30;;;;;;5046626;28;20537;-80
2022/07/19 08:51:37;;;;;;;6.50;3.55;;;27.10;98.80;;;;;;5049457;28;20041;-80
2022/07/19 08:54:03;;;;;;;7.32;3.05;;;27.40;98.60;;;;;;5072441;28;20035;-80
2022/07/19 08:59:13;;;;;;;10.10;3.03;;;27.90;97.40;;;;;;5049190;28;20040;-79
2022/07/19 09:01:39;;;;;;;8.55;3.42;;;28.20;97.40;;;;;;5045519;28;20116;-80
2022/07/19 09:04:08;;;;;;;5.57;3.03;;;28.40;96.70;;;;;;5054094;28;20056;-80
2022/07/19 09:06:44;;;;;;;6.75;2.97;;;28.60;96.30;;;;;;5035267;28;20064;-80
2022/07/19 09:09:12;;;;;;;5.78;2.90;;;28.90;93.70;;;;;;5053128;28;20045;-81
2022/07/19 09:11:48;;;;;;;6.05;3.53;;;29.10;94.30;;;;;;5065424;28;20576;-80
2022/07/19 09:14:17;;;;;;;4.40;2.70;;;29.20;91.90;;;;;;5045462;28;20047;-80
2022/07/19 09:16:48;;;;;;;4.03;2.70;;;29.20;89.90;;;;;;5033286;28;20087;-81
2022/07/19 09:19:13;;;;;;;;;;;29.20;84.40;;;;;;5068886;28;20037;-80
2022/07/19 09:22:01;;;;;;;4.22;2.53;;;29.20;81.90;;;;;;5029287;28;19917;-80
2022/07/19 09:24:37;;;;;;;6.70;3.03;;;29.40;84.20;;;;;;5049836;28;20111;-80
2022/07/19 09:27:11;;;;;;;6.18;2.60;;;29.60;82.10;;;;;;5033032;28;20481;-80
2022/07/19 09:29:39;;;;;;;6.90;2.60;;;29.80;78.30;;;;;;5043470;28;21547;-80
2022/07/19 09:32:12;;;;;;;7.38;3.35;;;30.10;78.80;;;;;;5057742;28;20032;-80
2022/07/19 09:34:48;;;;;;;7.25;2.40;;;30.20;74.80;;;;;;5041268;28;20040;-80
2022/07/19 09:37:16;;;;;;;7.53;3.10;;;30.20;71.90;;;;;;5034253;28;20543;-81
2022/07/19 09:39:45;;;;;;;7.32;2.78;;;30.20;71.50;;;;;;5075053;28;20042;-80
2022/07/19 09:42:12;;;;;;;5.45;2.60;;;30.30;69.30;;;;;;5043688;28;20451;-80
2022/07/19 09:44:39;;;;;;;8.43;2.80;;;30.50;69.30;;;;;;5034665;28;20130;-80
2022/07/19 09:47:04;;;;;;;8.02;2.92;;;30.60;68.30;;;;;;5040252;28;20546;-83
2022/07/19 09:49:30;;;;;;;5.40;2.72;;;30.80;67.90;;;;;;5027782;28;20029;-80
2022/07/19 09:51:56;;;;;;;4.85;2.80;;;30.90;67.60;;;;;;5037527;28;20040;-80
2022/07/19 09:54:24;;;;;;;7.22;2.70;;;31.00;65.40;;;;;;5054556;28;20037;-80
2022/07/19 09:56:52;;;;;;;5.28;2.60;;;31.10;64.70;;;;;;5034494;28;20029;-80
2022/07/19 09:59:19;;;;;;;4.35;2.78;;;31.30;64.90;;;;;;5041303;28;20051;-80
2022/07/19 10:01:50;;;;;;;6.95;2.90;;;31.40;62.90;;;;;;5051197;28;20706;-80
2022/07/19 10:04:20;;;;;;;5.28;2.70;;;31.40;61.50;;;;;;5027171;28;20485;-83
2022/07/19 10:06:48;;;;;;;5.55;2.50;;;31.60;61.60;;;;;;5037369;28;20058;-83
2022/07/19 10:09:17;;;;;;;7.57;3.08;;;31.60;60.90;;;;;;5021329;28;20040;-82
2022/07/19 10:11:43;;;;;;;5.90;2.42;;;31.70;59.40;;;;;;5039936;28;20029;-83
2022/07/19 10:14:10;;;;;;;6.35;2.88;;;31.70;59.20;;;;;;5044305;28;20048;-81
2022/07/19 10:16:39;;;;;;;4.30;2.28;;;31.80;58.20;;;;;;5028153;28;20128;-81
2022/07/19 10:19:28;;;;;;;6.78;2.58;;;31.90;57.60;;;;;;5026442;28;20493;-83
2022/07/19 10:21:54;;;;;;;4.57;2.35;;;32.00;56.30;;;;;;5063807;28;20420;-82
2022/07/19 10:24:48;;;;;;;7.75;2.63;;;32.10;57.80;;;;;;5059299;28;20430;-83
2022/07/19 10:27:16;;;;;;;5.45;2.50;;;32.20;55.20;;;;;;5071490;28;20102;-81
2022/07/19 10:29:42;;;;;;;3.30;2.15;;;32.30;56.50;;;;;;5035943;28;20032;-82
2022/07/19 10:32:11;;;;;;;5.93;2.47;;;32.50;56.10;;;;;;5060555;28;20447;-83
2022/07/19 10:34:38;;;;;;;5.60;2.50;;;32.70;55.70;;;;;;5039782;28;20045;-83
2022/07/19 10:37:04;;;;;;;6.60;2.67;;;32.90;55.50;;;;;;5052467;28;20044;-82
2022/07/19 10:39:38;;;;;;;6.43;2.40;;;33.00;54.60;;;;;;5068545;28;20160;-83
2022/07/19 10:42:18;;;;;;;2.88;2.20;;;33.00;52.30;;;;;;5053533;28;20037;-81
2022/07/19 10:44:56;;;;;;;;;;;33.00;51.80;;;;;;5054640;28;20423;-80
2022/07/19 10:47:22;;;;;;;4.40;2.10;;;33.00;52.60;;;;;;5041062;28;19916;-80
2022/07/19 10:49:49;;;;;;;5.93;2.70;;;33.20;53.00;;;;;;5071824;28;20063;-81
2022/07/19 10:52:33;;;;;;;3.08;2.13;;;33.30;52.30;;;;;;5071429;28;20622;-79
2022/07/19 10:55:22;;;;;;;4.80;2.30;;;33.40;50.90;;;;;;5063854;28;20411;-81
2022/07/19 10:58:06;;;;;;;3.83;2.25;;;33.50;50.40;;;;;;5061511;28;20040;-79
2022/07/19 11:00:52;;;;;;;6.22;2.40;;;33.50;51.20;;;;;;5070038;28;20081;-79
2022/07/19 11:03:21;;;;;;;6.93;2.55;;;33.70;50.50;;;;;;5072474;28;20048;-78
2022/07/19 11:05:58;;;;;;;6.13;2.65;;;33.90;50.90;;;;;;5049791;28;20090;-79
2022/07/19 11:08:38;;;;;;;6.20;2.33;;;34.00;50.60;;;;;;5070593;28;20058;-79
2022/07/19 11:11:14;;;;;;;;;;;34.10;49.90;;;;;;5055851;28;20037;-79
2022/07/19 11:13:44;;;;;;;4.47;2.58;;;34.10;48.00;;;;;;5072794;28;19931;-79
2022/07/19 11:16:09;;;;;;;6.57;2.38;;;34.20;50.10;;;;;;5073557;28;20040;-78
2022/07/19 11:18:35;;;;;;;4.32;2.40;;;34.30;49.60;;;;;;5075419;28;20182;-79
2022/07/19 11:21:05;;;;;;;4.10;2.25;;;34.30;49.20;;;;;;5038784;28;20055;-79
2022/07/19 11:23:32;;;;;;;3.77;2.30;;;34.30;47.60;;;;;;5039309;28;20443;-79
2022/07/19 11:26:17;;;;;;;7.43;2.45;;;34.10;48.10;;;;;;5072201;28;20106;-79
2022/07/19 11:28:44;;;;;;;6.78;2.35;;;34.10;48.30;;;;;;5071137;28;20028;-80
2022/07/19 11:31:24;;;;;;;3.30;2.10;;;34.20;48.10;;;;;;5070574;28;20037;-79
2022/07/19 11:33:54;;;;;;;2.88;2.35;;;34.20;47.90;;;;;;5037217;28;20044;-80
2022/07/19 11:36:20;;;;;;;5.60;2.53;;;34.20;47.70;;;;;;5036427;28;20091;-80
2022/07/19 11:38:58;;;;;;;7.13;2.30;;;34.30;46.70;;;;;;5046773;28;20556;-80
2022/07/19 11:41:29;;;;;;;4.30;2.05;;;34.30;45.70;;;;;;5042615;28;20052;-80
2022/07/19 11:44:05;;;;;;;2.97;2.20;;;34.30;47.00;;;;;;5053467;28;20044;-78
2022/07/19 11:46:40;;;;;;;3.40;2.17;;;34.30;46.90;;;;;;5029144;28;20107;-79
2022/07/19 11:49:09;;;;;;;4.20;2.15;;;34.40;46.20;;;;;;5055970;28;20063;-79
2022/07/19 11:51:35;;;;;;;4.80;2.15;;;34.50;46.80;;;;;;5053637;28;20036;-78
2022/07/19 11:54:04;;;;;;;4.00;2.10;;;34.70;46.60;;;;;;5034753;28;20072;-77
2022/07/19 11:56:32;;;;;;;3.67;2.30;;;34.70;45.90;;;;;;5065243;28;20541;-79
2022/07/19 11:59:01;;;;;;;5.28;2.13;;;34.80;45.80;;;;;;5029388;28;20049;-79
2022/07/19 12:01:32;;;;;;;5.50;2.20;;;35.00;45.90;;;;;;5070580;28;20403;-79
2022/07/19 12:04:03;;;;;;;2.40;1.90;;;35.10;46.00;;;;;;5069138;28;20044;-80
2022/07/19 12:06:40;;;;;;;3.47;1.88;;;35.30;46.00;;;;;;5064498;28;20083;-78
2022/07/19 12:09:25;;;;;;;6.28;1.90;;;35.40;45.20;;;;;;5045947;28;20132;-78
2022/07/19 12:11:53;;;;;;;5.95;2.08;;;35.30;45.10;;;;;;5052931;28;20044;-79
2022/07/19 12:14:27;;;;;;;4.13;1.90;;;35.20;43.50;;;;;;5026283;28;20439;-78
2022/07/19 12:17:18;;;;;;;4.07;2.10;;;35.20;44.20;;;;;;5056825;28;20059;-77
2022/07/19 12:19:47;;;;;;;6.05;2.17;;;35.40;44.10;;;;;;5038861;28;20029;-79
2022/07/19 12:22:33;;;;;;;3.85;2.15;;;35.40;43.80;;;;;;5036247;28;20036;-79
2022/07/19 12:24:58;;;;;;;2.50;1.70;;;35.50;43.90;;;;;;5037118;28;20044;-80
2022/07/19 12:27:27;;;;;;;8.27;2.17;;;35.50;43.30;;;;;;5039144;28;20037;-79
2022/07/19 12:29:58;;;;;;;5.10;2.20;;;35.30;42.70;;;;;;5030207;28;20060;-78
2022/07/19 12:32:35;;;;;;;3.90;1.90;;;35.30;43.80;;;;;;5029252;28;20483;-79
2022/07/19 12:35:08;;;;;;;3.67;1.88;;;35.40;42.90;;;;;;5046241;28;20115;-79
2022/07/19 12:37:40;;;;;;;3.85;2.00;;;35.40;43.10;;;;;;5036590;28;20043;-81
2022/07/19 12:40:14;;;;;;;6.05;2.20;;;35.50;42.70;;;;;;5048751;28;20054;-79
2022/07/19 12:42:49;;;;;;;5.50;2.08;;;35.50;42.10;;;;;;5072315;28;20040;-82
2022/07/19 12:45:20;;;;;;;5.88;2.00;;;35.60;42.60;;;;;;5039034;28;20036;-78
2022/07/19 12:47:46;;;;;;;3.97;1.95;;;35.50;42.20;;;;;;5051211;28;20037;-78
2022/07/19 12:50:30;;;;;;;2.33;1.80;;;35.60;42.60;;;;;;5057377;28;20044;-79
2022/07/19 12:52:58;;;;;;;9.23;2.20;;;35.60;41.40;;;;;;5041096;28;20044;-80
2022/07/19 12:55:25;;;;;;;6.70;2.05;;;35.60;40.50;;;;;;5050201;28;20036;-80